Phoenix Sky Harbor International Airport
KPHX : now visible

Airfield :











YOU CAN JOIN US ON...

 
LOGIN :

Register | Disclaimer

   EN    FR    IT 

 









Legend :    VFR   Marginal VFR   IFR   Intensive IFR   Very Intensive IFR
Visi :
Ceiling :
>= 8 km
>= 3000ft
5 to 8 km
1000 to 3000 ft
1500m to 5 km
500 to 1000 ft
800 to 1500m
200 to 500 ft
< 800m
< 200 ft
Symbols :   Thunderstorms  Fog  Heavy snow  Heavy precipitations  Wind > 20 kt






- Airport Elevation : 1135 ft
- IATA code : PHX


KPHX - Phoenix Sky Harbor International

CURRENT METAR :
  • 072051Z 14008G15KT 100V170 10SM FEW100 27/02 A2997 RMK AO2 WSHFT 2017 SLP135 T02670017 58025

EXPIRED METARs :
  • 072037Z 20008KT 10SM FEW100 27/02 A2998 RMK AO2 WSHFT 2017 T02720017
  • 071951Z VRB06KT 10SM FEW100 26/01 A3000 RMK AO2 SLP145 T02560006
  • 071851Z 11009KT 10SM FEW095 25/01 A3002 RMK AO2 SLP154 T02500011

TAF KPHX
Valid from the 07 at 18:00 until the 09 at 00:00 UTC


071720Z 0718/0824 12005KT P6SM SKC
FM071900 19008KT P6SM FEW250
FM072300 26010KT P6SM FEW100
TEMPO 0723/0803 27010G16KT
FM080400 28006KT P6SM FEW100
FM081100 12007KT P6SM SCT090



MET'MAP, your aeronautical weather chart ! - Copyright ORBIFLY December 2007 - Disclaimer

ORBIFLY MET'MAP TEAM :

Programming & Development : Alexandra Zaïnal
Concept & original design : Baudouin d'Aumeries
Assistance for programming : Marc-Olivier Méhu
Technical & hardware support : Manuel Goepfert

Contact : metmap@orbifly.com




SOURCES & CREDITS :

   NOAA       Earth
Advisory